Time;durP1;ratioP1;P1;durP2;ratioP2;P2;SDS_P1;SDS_P2;PMS_P1;PMS_P2;Temp;Humidity;BMP_temperature;BMP_pressure;BME280_temperature;BME280_humidity;BME280_pressure;Samples;Min_cycle;Max_cycle;Signal;HPM_P1;HPM_P2
2022/10/01 00:01:18;;;;;;;4.40;3.25;;;7.40;99.90;;;6.81;100.00;96965.81;5055785;28;20136;-43
2022/10/01 00:03:46;;;;;;;4.68;3.70;;;7.40;99.90;;;6.86;100.00;96977.00;5056377;28;20035;-44
2022/10/01 00:06:17;;;;;;;6.25;3.22;;;7.40;99.90;;;6.88;100.00;96976.97;5062494;28;20067;-44
2022/10/01 00:08:47;;;;;;;4.47;3.25;;;7.50;99.90;;;6.91;100.00;96978.63;5061843;28;20024;-42
2022/10/01 00:11:32;;;;;;;4.32;3.33;;;7.50;99.90;;;6.93;100.00;96988.19;5058945;28;20033;-45
2022/10/01 00:13:57;;;;;;;6.50;3.78;;;7.50;99.90;;;6.92;100.00;96975.97;5061688;28;20028;-43
2022/10/01 00:16:26;;;;;;;4.00;3.40;;;7.50;99.90;;;6.98;100.00;96959.19;5062175;28;20029;-42
2022/10/01 00:18:53;;;;;;;4.07;3.35;;;7.50;99.90;;;6.99;100.00;96966.19;5062187;28;20032;-43
2022/10/01 00:21:26;;;;;;;4.85;4.03;;;7.60;99.90;;;7.01;100.00;96965.22;5055459;28;20067;-43
2022/10/01 00:24:03;;;;;;;4.80;3.47;;;7.60;99.90;;;7.00;100.00;96960.00;5062599;28;20033;-43
2022/10/01 00:26:32;;;;;;;5.07;3.58;;;7.60;99.90;;;7.00;100.00;96965.25;5057428;28;20276;-43
2022/10/01 00:29:05;;;;;;;6.40;3.63;;;7.60;99.90;;;6.97;100.00;96968.84;5060216;28;20086;-42
2022/10/01 00:31:31;;;;;;;6.63;3.75;;;7.60;99.90;;;7.03;100.00;96973.91;5057910;28;20261;-42
2022/10/01 00:34:03;;;;;;;5.60;3.80;;;7.60;99.90;;;7.08;100.00;96972.00;5057608;28;20028;-45
2022/10/01 00:36:30;;;;;;;8.27;3.97;;;7.70;99.90;;;7.14;100.00;96954.34;5060295;28;20032;-43
2022/10/01 00:38:59;;;;;;;6.00;4.50;;;7.70;99.90;;;7.17;100.00;96949.88;5061971;28;20111;-45
2022/10/01 00:41:27;;;;;;;7.93;4.22;;;7.70;99.90;;;7.30;100.00;96960.00;5056544;28;20037;-43
2022/10/01 00:44:01;;;;;;;5.03;3.67;;;7.80;99.90;;;7.30;100.00;96954.75;5060548;28;20090;-43
2022/10/01 00:46:42;;;;;;;4.82;3.85;;;7.90;99.90;;;7.30;100.00;96960.84;5061473;28;20070;-43
2022/10/01 00:49:19;;;;;;;5.35;4.10;;;7.90;99.90;;;7.32;100.00;96961.69;5054397;28;20048;-43
2022/10/01 00:51:54;;;;;;;6.25;4.32;;;7.90;99.90;;;7.38;100.00;96961.47;5059282;28;20411;-42
2022/10/01 00:54:40;;;;;;;6.35;4.93;;;8.00;99.90;;;7.14;100.00;96934.25;5060250;28;20044;-42
2022/10/01 00:57:06;;;;;;;5.75;4.32;;;8.00;99.90;;;7.41;100.00;96982.38;5056785;28;20211;-43
2022/10/01 00:59:34;;;;;;;4.65;3.67;;;8.00;99.90;;;7.45;100.00;96980.53;5060368;28;20021;-43
2022/10/01 01:02:00;;;;;;;5.05;3.33;;;8.10;99.90;;;7.46;100.00;96984.84;5055646;28;20028;-44
2022/10/01 01:04:26;;;;;;;5.45;3.95;;;8.10;99.90;;;7.50;100.00;96982.97;5060453;28;20024;-43
2022/10/01 01:06:56;;;;;;;4.25;3.30;;;8.10;99.90;;;7.50;100.00;96960.25;5058089;28;20044;-43
2022/10/01 01:09:29;;;;;;;4.65;3.50;;;8.10;99.90;;;7.51;100.00;96954.06;5054645;28;20364;-44
2022/10/01 01:12:27;;;;;;;4.55;3.40;;;8.10;99.90;;;7.52;100.00;96962.78;5056476;28;20032;-43
2022/10/01 01:14:56;;;;;;;4.78;3.05;;;8.10;99.90;;;7.47;100.00;96960.34;5057022;28;20119;-44
2022/10/01 01:17:37;;;;;;;4.75;3.60;;;8.10;99.90;;;7.47;100.00;96967.34;5056399;28;20481;-44
2022/10/01 01:20:31;;;;;;;4.25;3.10;;;8.10;99.90;;;7.40;100.00;96970.16;5057370;28;20051;-44
2022/10/01 01:23:13;;;;;;;3.67;3.17;;;8.00;99.90;;;7.45;100.00;96964.78;5059439;28;20028;-43
2022/10/01 01:26:04;;;;;;;3.78;2.70;;;8.10;99.90;;;7.45;100.00;96965.63;5055563;28;20351;-42
2022/10/01 01:28:35;;;;;;;3.65;3.10;;;8.00;99.90;;;7.46;100.00;96955.97;5057412;28;20028;-45
2022/10/01 01:31:07;;;;;;;4.90;3.07;;;8.10;99.90;;;7.51;100.00;96954.06;5061652;28;20397;-42
2022/10/01 01:33:37;;;;;;;5.07;3.08;;;8.10;99.90;;;7.54;100.00;96950.50;5058307;28;20552;-44
2022/10/01 01:36:14;;;;;;;5.03;2.95;;;8.10;99.90;;;7.56;100.00;96946.06;5062765;28;20032;-43
2022/10/01 01:38:49;;;;;;;3.05;2.70;;;8.10;99.90;;;7.53;100.00;96933.03;5054209;28;20454;-43
2022/10/01 01:41:19;;;;;;;3.83;3.28;;;8.20;99.90;;;7.57;100.00;96918.91;5056192;28;20036;-43
2022/10/01 01:43:48;;;;;;;4.30;2.88;;;8.20;99.90;;;7.56;100.00;96910.19;5081268;22;20025;-45
2022/10/01 01:46:16;;;;;;;4.70;2.97;;;8.20;99.90;;;7.60;100.00;96914.41;5068055;28;20041;-54
2022/10/01 01:48:46;;;;;;;4.45;3.05;;;8.20;99.90;;;7.60;100.00;96918.81;5057450;28;20074;-54
2022/10/01 01:51:22;;;;;;;4.18;3.38;;;8.20;99.90;;;7.63;100.00;96916.09;5058816;28;20424;-53
2022/10/01 01:53:48;;;;;;;6.20;3.22;;;8.20;99.90;;;7.64;100.00;96910.81;5055931;28;20028;-49
2022/10/01 01:56:16;;;;;;;4.85;3.20;;;8.30;99.90;;;7.67;100.00;96911.59;5055762;28;20546;-49
2022/10/01 01:58:43;;;;;;;4.70;3.28;;;8.30;99.90;;;7.64;100.00;96900.31;5055118;28;20036;-54
2022/10/01 02:01:34;;;;;;;4.47;3.13;;;8.30;99.90;;;7.78;100.00;96904.22;5056265;28;20056;-51
2022/10/01 02:04:06;;;;;;;5.57;3.05;;;8.40;99.90;;;7.78;100.00;96891.94;5058772;28;20045;-52
2022/10/01 02:07:22;;;;;;;4.95;3.00;;;8.40;99.90;;;7.86;100.00;96903.94;5056304;28;20054;-53
2022/10/01 02:10:12;;;;;;;8.50;3.03;;;8.40;99.90;;;7.98;100.00;96900.91;5058939;28;20310;-52
2022/10/01 02:13:32;;;;;;;4.85;3.17;;;8.50;99.90;;;7.98;100.00;96906.16;5055181;28;20086;-53
2022/10/01 02:16:19;;;;;;;3.88;2.70;;;8.60;99.90;;;7.95;100.00;96898.38;5047320;28;20048;-54
2022/10/01 02:18:57;;;;;;;3.72;2.83;;;8.60;99.90;;;7.96;100.00;96900.09;5054862;28;20736;-51
2022/10/01 02:21:40;;;;;;;4.90;2.53;;;8.60;99.90;;;7.94;100.00;96896.69;5057732;28;20025;-52
2022/10/01 02:24:16;;;;;;;3.03;2.22;;;8.50;99.90;;;7.95;100.00;96886.13;5057738;28;20020;-53
2022/10/01 02:26:44;;;;;;;4.78;2.97;;;8.50;99.90;;;7.98;100.00;96888.63;5053659;28;20068;-54
2022/10/01 02:29:17;;;;;;;2.92;2.15;;;8.50;99.90;;;7.99;100.00;96892.13;5054026;28;20530;-54
2022/10/01 02:31:46;;;;;;;2.80;2.17;;;8.60;99.90;;;8.01;100.00;96891.16;5058779;28;20025;-54
2022/10/01 02:34:14;;;;;;;3.08;2.28;;;8.60;99.90;;;8.03;100.00;96888.47;5051914;28;20028;-52
2022/10/01 02:36:44;;;;;;;2.67;1.85;;;8.60;99.90;;;8.05;100.00;96896.31;5055129;28;20362;-55
2022/10/01 02:39:12;;;;;;;2.67;2.25;;;8.60;99.90;;;8.03;100.00;96896.34;5055441;28;20029;-53
2022/10/01 02:41:40;;;;;;;2.78;2.10;;;8.60;99.90;;;8.02;100.00;96889.38;5056246;28;20150;-54
2022/10/01 02:44:12;;;;;;;3.13;2.20;;;8.60;99.90;;;8.02;100.00;96892.00;5056012;28;20288;-53
2022/10/01 02:47:08;;;;;;;3.22;2.20;;;8.60;99.90;;;8.01;100.00;96898.19;5054401;28;20689;-54
2022/10/01 02:49:35;;;;;;;3.22;2.25;;;8.60;99.90;;;8.02;100.00;96889.38;5055818;28;20040;-51
2022/10/01 02:52:12;;;;;;;2.50;2.30;;;8.60;99.90;;;8.00;100.00;96885.94;5054920;28;20032;-54
2022/10/01 02:55:23;;;;;;;3.58;2.30;;;8.60;99.90;;;7.99;100.00;96871.13;5053066;28;20396;-53
2022/10/01 02:57:49;;;;;;;2.53;2.00;;;8.60;99.90;;;8.00;100.00;96875.44;5019161;28;20040;-54
2022/10/01 03:00:20;;;;;;;2.85;1.85;;;8.60;99.90;;;7.99;100.00;96876.38;5054138;28;20025;-55
2022/10/01 03:02:47;;;;;;;5.47;2.10;;;8.60;99.90;;;7.97;100.00;96876.44;5054663;28;20056;-53
2022/10/01 03:05:16;;;;;;;2.97;2.15;;;8.60;99.90;;;7.98;100.00;96883.38;5055814;28;20052;-49
2022/10/01 03:07:42;;;;;;;3.63;2.38;;;8.60;99.90;;;7.97;100.00;96878.22;5054400;28;20032;-51
2022/10/01 03:10:10;;;;;;;3.45;2.05;;;8.50;99.90;;;7.94;100.00;96871.28;5055244;28;20028;-51
2022/10/01 03:12:36;;;;;;;2.85;2.10;;;8.50;99.90;;;7.94;100.00;96868.66;5057497;28;20114;-54
2022/10/01 03:15:03;;;;;;;3.25;2.30;;;8.50;99.90;;;7.90;100.00;96867.06;5055492;28;20028;-52
2022/10/01 03:17:28;;;;;;;3.10;1.95;;;8.50;99.90;;;7.89;100.00;96874.97;5055614;28;20071;-51
2022/10/01 03:19:54;;;;;;;5.38;2.45;;;8.50;99.90;;;7.85;100.00;96868.97;5055799;28;20029;-53
2022/10/01 03:22:21;;;;;;;3.00;2.00;;;8.40;99.90;;;7.81;100.00;96870.84;5055390;28;20533;-51
2022/10/01 03:24:49;;;;;;;4.30;2.33;;;8.40;99.90;;;7.78;100.00;96859.59;5052894;28;20059;-53
2022/10/01 03:27:16;;;;;;;2.80;2.15;;;8.40;99.90;;;7.73;100.00;96859.75;5058343;28;20056;-53
2022/10/01 03:29:43;;;;;;;3.15;2.13;;;8.30;99.90;;;7.67;100.00;96857.34;5055795;28;20520;-53
2022/10/01 03:32:09;;;;;;;2.60;2.00;;;8.30;99.90;;;7.72;100.00;96862.44;5055120;28;20032;-54
2022/10/01 03:34:35;;;;;;;1.90;1.63;;;8.30;99.90;;;7.71;100.00;96855.47;5054349;28;20035;-54
2022/10/01 03:37:00;;;;;;;2.53;2.08;;;8.30;99.90;;;7.64;100.00;96853.06;5058402;28;20016;-54
2022/10/01 03:39:26;;;;;;;2.35;1.73;;;8.30;99.90;;;7.66;100.00;96863.47;5053255;28;20423;-53
2022/10/01 03:41:52;;;;;;;4.25;2.08;;;8.20;99.90;;;7.63;100.00;96859.22;5055956;28;20036;-53
2022/10/01 03:44:18;;;;;;;2.28;1.75;;;8.20;99.90;;;7.60;100.00;96856.69;5056446;28;20102;-53
2022/10/01 03:46:43;;;;;;;1.85;1.70;;;8.20;99.90;;;7.59;100.00;96843.59;5059025;28;20036;-51
2022/10/01 03:49:09;;;;;;;2.45;1.88;;;8.20;99.90;;;7.57;100.00;96837.56;5058224;28;20055;-54
2022/10/01 03:51:36;;;;;;;2.20;2.00;;;8.20;99.90;;;7.56;100.00;96833.25;5056792;28;20045;-54
2022/10/01 03:54:03;;;;;;;4.03;1.75;;;8.20;99.90;;;7.53;100.00;96823.69;5061047;28;20025;-53
2022/10/01 03:56:29;;;;;;;2.10;1.63;;;8.10;99.90;;;7.55;100.00;96828.88;5057066;28;20031;-55
2022/10/01 03:58:55;;;;;;;3.47;1.83;;;8.10;99.90;;;7.56;100.00;96828.00;5057440;28;20441;-54
2022/10/01 04:01:21;;;;;;;4.47;1.80;;;8.20;99.90;;;7.52;100.00;96818.47;5059845;28;20033;-50
2022/10/01 04:03:48;;;;;;;2.90;2.10;;;8.20;99.90;;;7.57;100.00;96829.69;5058353;28;20115;-54
2022/10/01 04:06:13;;;;;;;2.20;1.50;;;8.20;99.90;;;7.58;100.00;96829.63;5061514;28;20432;-53
2022/10/01 04:08:40;;;;;;;2.47;1.55;;;8.20;99.90;;;7.64;100.00;96821.56;5057656;28;20473;-50
2022/10/01 04:11:06;;;;;;;3.40;1.67;;;8.20;99.90;;;7.71;100.00;96822.19;5057181;28;20037;-53
2022/10/01 04:13:33;;;;;;;2.28;1.35;;;8.30;99.90;;;7.78;100.00;96814.97;5057609;28;20032;-53
2022/10/01 04:16:03;;;;;;;1.58;1.33;;;8.30;99.90;;;7.83;100.00;96813.91;5057978;28;20029;-53
2022/10/01 04:18:29;;;;;;;1.83;1.30;;;8.40;99.90;;;7.85;100.00;96803.34;5061593;28;20013;-49
2022/10/01 04:20:56;;;;;;;2.85;1.30;;;8.50;99.90;;;7.94;100.00;96807.41;5058731;28;20027;-52
2022/10/01 04:23:22;;;;;;;1.75;1.40;;;8.50;99.90;;;7.89;100.00;96804.94;5060993;28;20029;-50
2022/10/01 04:25:48;;;;;;;2.08;1.40;;;8.50;99.90;;;7.95;100.00;96817.88;5058134;28;20028;-50
2022/10/01 04:28:14;;;;;;;1.60;1.40;;;8.60;99.90;;;7.99;100.00;96819.47;5059211;28;20031;-51
2022/10/01 04:30:43;;;;;;;1.77;1.40;;;8.60;99.90;;;8.01;100.00;96819.41;5057142;28;20044;-51
2022/10/01 04:33:15;;;;;;;2.97;1.48;;;8.60;99.90;;;8.03;100.00;96809.69;5056403;28;20024;-53
2022/10/01 04:35:42;;;;;;;2.65;1.80;;;8.60;99.90;;;8.01;100.00;96816.78;5058293;28;20098;-51
2022/10/01 04:38:14;;;;;;;3.15;1.50;;;8.60;99.90;;;8.02;100.00;96818.47;5060819;28;20694;-53
2022/10/01 04:40:40;;;;;;;4.13;1.88;;;8.60;99.90;;;8.02;100.00;96815.84;5060171;28;20048;-51
2022/10/01 04:43:09;;;;;;;2.67;1.60;;;8.60;99.90;;;8.01;100.00;96817.63;5061046;28;20024;-52
2022/10/01 04:45:38;;;;;;;3.17;1.80;;;8.60;99.90;;;7.96;100.00;96809.06;5058513;28;20358;-49
2022/10/01 04:48:04;;;;;;;2.40;1.50;;;8.60;99.90;;;7.99;100.00;96810.72;5060853;28;20485;-52
2022/10/01 04:50:31;;;;;;;1.33;1.23;;;8.60;99.90;;;8.02;100.00;96814.09;5055524;28;20086;-55
2022/10/01 04:52:57;;;;;;;2.88;1.63;;;8.60;99.90;;;8.02;100.00;96807.97;5057479;28;20134;-52
2022/10/01 04:55:22;;;;;;;2.65;1.70;;;8.60;99.90;;;8.05;100.00;96807.03;5056342;28;20033;-50
2022/10/01 04:57:49;;;;;;;3.08;1.70;;;8.60;99.90;;;8.06;100.00;96801.72;5055297;28;20068;-53
2022/10/01 05:00:19;;;;;;;2.88;1.50;;;8.70;99.90;;;8.10;100.00;96800.69;5056547;28;20032;-51
2022/10/01 05:02:47;;;;;;;2.58;1.58;;;8.70;99.90;;;8.15;100.00;96805.78;5058363;28;20092;-53
2022/10/01 05:05:15;;;;;;;2.85;1.48;;;8.70;99.90;;;8.17;100.00;96811.84;5055181;28;20056;-50
2022/10/01 05:07:41;;;;;;;2.88;1.38;;;8.80;99.90;;;8.20;100.00;96809.94;5058570;28;20068;-52
2022/10/01 05:10:14;;;;;;;1.80;1.40;;;8.80;99.90;;;8.23;100.00;96811.59;5058512;28;20044;-52
2022/10/01 05:12:41;;;;;;;1.98;1.55;;;8.80;99.90;;;8.25;100.00;96812.38;5060561;28;20492;-52
2022/10/01 05:15:07;;;;;;;1.90;1.45;;;8.80;99.90;;;8.27;100.00;96807.94;5057484;28;20046;-53
2022/10/01 05:17:33;;;;;;;3.50;1.38;;;8.90;99.90;;;8.33;100.00;96809.50;5057287;28;20029;-55
2022/10/01 05:20:00;;;;;;;2.75;1.42;;;8.90;99.90;;;8.50;100.00;96811.50;5057518;28;20288;-50
2022/10/01 05:22:26;;;;;;;1.77;1.42;;;9.00;99.90;;;8.39;100.00;96796.13;5055832;28;20039;-52
2022/10/01 05:24:52;;;;;;;1.77;1.05;;;9.10;99.90;;;8.52;100.00;96814.94;5060879;28;20028;-49
2022/10/01 05:27:18;;;;;;;1.45;1.00;;;9.10;99.90;;;8.54;100.00;96811.34;5059503;28;20105;-53
2022/10/01 05:29:45;;;;;;;1.15;1.00;;;9.10;99.90;;;8.56;100.00;96812.16;5058341;28;20036;-51
2022/10/01 05:32:11;;;;;;;3.50;1.40;;;9.20;99.90;;;8.58;100.00;96799.78;5059116;28;20060;-53
2022/10/01 05:34:38;;;;;;;1.80;1.10;;;9.20;99.90;;;8.60;100.00;96792.69;5055015;28;20032;-51
2022/10/01 05:37:05;;;;;;;2.20;1.02;;;9.20;99.90;;;8.62;100.00;96791.81;5059209;28;20032;-49
2022/10/01 05:39:31;;;;;;;1.63;1.23;;;9.20;99.90;;;8.65;100.00;96799.53;5054009;28;20289;-53
2022/10/01 05:41:58;;;;;;;2.92;1.35;;;9.20;99.90;;;8.68;100.00;96812.56;5058040;28;20035;-49
2022/10/01 05:44:24;;;;;;;4.07;1.10;;;9.20;99.90;;;8.74;100.00;96804.44;5056886;28;20079;-54
2022/10/01 05:46:51;;;;;;;3.88;1.38;;;9.30;99.90;;;8.78;100.00;96804.28;5057358;28;20029;-50
2022/10/01 05:49:18;;;;;;;3.58;1.20;;;9.40;99.90;;;8.81;100.00;96802.44;5055277;28;20156;-54
2022/10/01 05:51:44;;;;;;;1.98;1.20;;;9.40;99.90;;;8.82;100.00;96794.50;5057180;28;20033;-53
2022/10/01 05:54:11;;;;;;;3.85;1.45;;;9.40;99.90;;;8.85;100.00;96799.63;5058449;28;20524;-51
2022/10/01 05:56:37;;;;;;;1.25;0.95;;;9.40;99.90;;;8.88;100.00;96772.34;5057783;28;20025;-53
2022/10/01 05:59:04;;;;;;;1.67;1.20;;;9.50;99.90;;;8.91;100.00;96780.97;5059356;28;20023;-51
2022/10/01 06:01:31;;;;;;;1.67;1.08;;;9.50;99.90;;;8.93;100.00;96773.03;5056012;28;20378;-54
2022/10/01 06:03:57;;;;;;;1.90;0.90;;;9.50;99.90;;;8.92;100.00;96766.06;5053751;28;20056;-54
2022/10/01 06:06:25;;;;;;;1.75;1.25;;;9.50;99.90;;;8.91;100.00;96759.09;5043094;28;20588;-54
2022/10/01 06:08:51;;;;;;;1.20;1.10;;;9.50;99.90;;;8.84;100.00;96742.69;5058686;28;20040;-52
2022/10/01 06:11:17;;;;;;;2.25;1.20;;;9.50;99.90;;;8.83;100.00;96746.25;5057088;28;20176;-55
2022/10/01 06:13:45;;;;;;;2.75;1.15;;;9.40;99.90;;;8.80;100.00;96733.22;5057313;28;20033;-51
2022/10/01 06:16:12;;;;;;;3.55;1.30;;;9.40;99.90;;;8.76;100.00;96742.16;5058236;28;20052;-52
2022/10/01 06:18:39;;;;;;;3.03;1.40;;;9.40;99.90;;;8.73;100.00;96729.13;5057555;28;20073;-54
2022/10/01 06:21:05;;;;;;;2.90;1.50;;;9.30;99.90;;;8.69;100.00;96735.44;5055559;28;22153;-55
2022/10/01 06:23:31;;;;;;;3.35;1.60;;;9.30;99.90;;;8.63;100.00;96728.63;5058826;28;20128;-54
2022/10/01 06:26:00;;;;;;;1.98;1.40;;;9.30;99.90;;;8.63;100.00;96736.50;5054174;28;20028;-55
2022/10/01 06:28:26;;;;;;;2.10;1.40;;;9.20;99.90;;;8.56;100.00;96727.16;5055654;28;20481;-56
2022/10/01 06:30:52;;;;;;;2.45;1.30;;;9.20;99.90;;;8.60;100.00;96726.16;5057407;28;20025;-54
2022/10/01 06:33:18;;;;;;;4.22;1.35;;;9.20;99.90;;;8.58;100.00;96726.19;5056436;28;20508;-55
2022/10/01 06:35:49;;;;;;;2.20;1.50;;;9.20;99.90;;;8.61;100.00;96722.59;5051987;28;20111;-55
2022/10/01 06:38:18;;;;;;;1.92;1.10;;;9.20;99.90;;;8.60;100.00;96729.63;5056524;28;20021;-53
2022/10/01 06:40:55;;;;;;;1.17;1.00;;;9.20;99.90;;;8.61;100.00;96727.84;5054485;28;20340;-55
2022/10/01 06:43:22;;;;;;;2.65;1.38;;;9.20;99.90;;;8.63;100.00;96725.16;5056900;28;20054;-55
2022/10/01 06:45:48;;;;;;;2.22;1.20;;;9.20;99.90;;;8.65;100.00;96720.69;5050811;28;20078;-54
2022/10/01 06:48:16;;;;;;;3.13;1.30;;;9.20;99.90;;;8.68;100.00;96723.19;5052776;28;20032;-52
2022/10/01 06:50:44;;;;;;;4.95;1.60;;;9.30;99.90;;;8.69;100.00;96722.28;5051947;28;20043;-57
2022/10/01 06:53:11;;;;;;;2.38;1.17;;;9.30;99.90;;;8.73;100.00;96727.34;5059225;28;20571;-57
2022/10/01 06:55:38;;;;;;;1.92;1.20;;;9.30;99.90;;;8.75;100.00;96729.94;5053735;28;20029;-57
2022/10/01 06:58:14;;;;;;;2.38;1.35;;;9.30;99.90;;;8.77;100.00;96735.97;5056743;28;20107;-57
2022/10/01 07:00:40;;;;;;;4.78;1.35;;;9.40;99.90;;;8.72;100.00;96720.41;5056009;28;20033;-57
2022/10/01 07:03:11;;;;;;;1.40;1.05;;;9.40;99.90;;;8.75;100.00;96736.03;5059767;28;20103;-57
2022/10/01 07:05:38;;;;;;;1.30;1.20;;;9.40;99.90;;;8.74;100.00;96733.47;5055422;28;20027;-58
2022/10/01 07:08:04;;;;;;;4.43;1.40;;;9.40;99.90;;;8.74;100.00;96738.72;5056712;28;20047;-57
2022/10/01 07:10:31;;;;;;;1.98;1.20;;;9.40;99.90;;;8.74;100.00;96744.84;5054142;28;20032;-57
2022/10/01 07:13:13;;;;;;;1.60;1.17;;;9.30;99.90;;;8.75;100.00;96743.91;5056364;28;20025;-57
2022/10/01 07:15:39;;;;;;;2.67;1.23;;;9.40;99.90;;;8.73;100.00;96737.03;5051623;28;20188;-57
2022/10/01 07:18:08;;;;;;;5.35;1.27;;;9.30;99.90;;;8.73;100.00;96726.50;5056692;28;20067;-58
2022/10/01 07:20:38;;;;;;;2.35;1.35;;;9.30;99.90;;;8.75;100.00;96727.28;5054928;28;20557;-58
2022/10/01 07:23:06;;;;;;;2.42;1.52;;;9.40;99.90;;;8.78;100.00;96729.81;5054038;28;20231;-57
2022/10/01 07:25:32;;;;;;;2.28;1.45;;;9.30;99.90;;;8.78;100.00;96722.78;5054803;28;20713;-57
2022/10/01 07:28:03;;;;;;;2.17;1.20;;;9.40;99.90;;;8.75;100.00;96703.63;5056528;28;20053;-57
2022/10/01 07:30:29;;;;;;;1.88;1.17;;;9.40;99.90;;;8.77;100.00;96710.56;5055669;28;20032;-57
2022/10/01 07:32:55;;;;;;;3.22;1.30;;;9.40;99.90;;;8.78;100.00;96716.66;5058607;28;20024;-57
2022/10/01 07:35:21;;;;;;;2.65;1.40;;;9.40;99.90;;;8.78;100.00;96712.25;5053233;28;20090;-57
2022/10/01 07:37:48;;;;;;;4.00;1.33;;;9.40;99.90;;;8.75;100.00;96701.84;5057558;28;20115;-57
2022/10/01 07:40:15;;;;;;;1.45;1.20;;;9.40;99.90;;;8.77;100.00;96712.31;5056574;28;20074;-57
2022/10/01 07:42:42;;;;;;;3.85;1.38;;;9.40;99.90;;;8.76;100.00;96705.34;5055283;28;20079;-57
2022/10/01 07:45:08;;;;;;;1.77;1.20;;;9.40;99.90;;;8.77;100.00;96699.16;5077424;22;20040;-39
2022/10/01 07:47:34;;;;;;;2.50;1.27;;;9.40;99.90;;;8.79;100.00;96689.44;5077089;28;20043;-40
2022/10/01 07:50:00;;;;;;;2.97;1.60;;;9.40;99.90;;;8.83;100.00;96700.69;5075460;28;20088;-41
2022/10/01 07:52:25;;;;;;;3.10;1.40;;;9.50;99.90;;;8.84;100.00;96700.63;5077006;28;20295;-39
2022/10/01 07:54:51;;;;;;;2.53;1.30;;;9.50;99.90;;;8.89;100.00;96709.19;5084904;28;20030;-40
2022/10/01 07:57:17;;;;;;;2.10;1.30;;;9.50;99.90;;;8.89;100.00;96706.56;5094463;28;20423;-41
2022/10/01 07:59:42;;;;;;;2.05;1.40;;;9.50;99.90;;;8.88;100.00;96702.22;5094307;28;20035;-40
2022/10/01 08:02:16;;;;;;;4.82;1.35;;;9.50;99.90;;;8.88;100.00;96704.84;5094437;28;20388;-40
2022/10/01 08:07:47;;;;;;;1.75;1.33;;;9.60;99.90;;;8.93;100.00;96710.75;5053391;28;20106;-40
2022/10/01 08:10:16;;;;;;;2.70;1.60;;;9.60;99.90;;;8.97;100.00;96711.47;5052379;28;20363;-40
2022/10/01 08:12:42;;;;;;;2.03;1.20;;;9.60;99.90;;;8.96;100.00;96710.63;5074648;28;20082;-40
2022/10/01 08:15:14;;;;;;;2.03;1.27;;;9.60;99.90;;;8.97;100.00;96714.13;5093648;28;20055;-40
2022/10/01 08:17:41;;;;;;;2.10;1.40;;;9.60;99.90;;;8.94;100.00;96704.59;5092660;28;20054;-40
2022/10/01 08:20:10;;;;;;;2.72;1.60;;;9.60;99.90;;;9.01;100.00;96694.69;5094371;28;20032;-39
2022/10/01 08:22:36;;;;;;;2.92;1.30;;;9.60;99.90;;;9.05;100.00;96705.94;5094321;28;20027;-40
2022/10/01 08:25:03;;;;;;;1.77;1.38;;;9.70;99.90;;;9.11;100.00;96713.53;5094921;28;20039;-41
2022/10/01 08:27:28;;;;;;;2.03;1.17;;;9.70;99.90;;;9.13;100.00;96709.94;5097097;27;20023;-40
2022/10/01 08:29:54;;;;;;;21.05;13.02;;;9.80;99.90;;;9.16;100.00;96708.94;5099667;27;20081;-40
2022/10/01 08:32:22;;;;;;;3.75;1.70;;;9.80;99.90;;;9.24;100.00;96716.50;5098392;28;20024;-41
2022/10/01 08:34:48;;;;;;;1.65;1.20;;;9.90;99.90;;;9.28;100.00;96729.47;5099940;28;20530;-41
2022/10/01 08:37:14;;;;;;;1.58;0.98;;;9.90;99.90;;;9.28;100.00;96740.00;5098763;28;20016;-41
2022/10/01 08:39:40;;;;;;;2.13;1.17;;;9.90;99.90;;;9.28;100.00;96728.63;5099227;28;20030;-40
2022/10/01 08:42:58;;;;;;;2.10;1.20;;;9.90;99.90;;;9.29;100.00;96733.81;5099853;28;20036;-40
2022/10/01 08:45:37;;;;;;;2.08;1.20;;;9.90;99.90;;;9.30;100.00;96742.56;5093603;28;20036;-40
2022/10/01 08:48:30;;;;;;;1.80;1.27;;;9.90;99.90;;;9.28;100.00;96733.91;5097528;28;20027;-40
2022/10/01 08:51:04;;;;;;;1.40;1.02;;;9.90;99.90;;;9.35;100.00;96741.47;5095860;28;20040;-41
2022/10/01 08:53:42;;;;;;;1.20;1.10;;;10.00;99.90;;;9.39;100.00;96736.06;5097510;28;20330;-40
2022/10/01 08:56:38;;;;;;;5.00;1.38;;;10.00;99.90;;;9.37;100.00;96738.78;5098733;28;20299;-41
2022/10/01 08:59:29;;;;;;;2.47;1.40;;;10.00;99.90;;;9.49;100.00;96738.25;5093370;28;20035;-40
2022/10/01 09:01:57;;;;;;;1.35;1.00;;;10.10;99.90;;;9.52;100.00;96748.63;5099352;27;20399;-40
2022/10/01 09:04:25;;;;;;;3.97;1.27;;;10.10;99.90;;;9.61;100.00;96736.00;5098466;28;20387;-41
2022/10/01 09:07:05;;;;;;;2.55;1.23;;;10.20;99.90;;;9.64;100.00;96756.94;5096541;28;20080;-40
2022/10/01 09:10:03;;;;;;;3.38;1.20;;;10.20;99.90;;;9.48;100.00;96712.84;5098006;27;20477;-40
2022/10/01 09:12:53;;;;;;;3.95;1.42;;;10.30;99.90;;;9.72;100.00;96750.38;5099796;27;20067;-42
2022/10/01 09:15:33;;;;;;;2.85;1.42;;;10.30;99.90;;;9.84;100.00;96749.00;5096995;28;20469;-40
2022/10/01 09:18:42;;;;;;;2.45;1.00;;;10.40;99.90;;;9.91;100.00;96766.25;5101573;28;20079;-41
2022/10/01 09:21:31;;;;;;;2.70;1.20;;;10.50;99.90;;;10.01;100.00;96761.41;5099091;27;20488;-41
2022/10/01 09:24:16;;;;;;;1.48;1.02;;;10.50;99.90;;;10.07;100.00;96752.38;5095858;28;20114;-40
2022/10/01 09:26:49;;;;;;;1.83;1.10;;;10.60;99.90;;;10.16;100.00;96751.97;5093895;27;20039;-40
2022/10/01 09:29:29;;;;;;;2.58;1.40;;;10.70;99.90;;;10.23;100.00;96742.84;5095602;28;20036;-42
2022/10/01 09:31:58;;;;;;;2.28;1.08;;;10.80;99.90;;;10.25;100.00;96738.38;5098173;27;20085;-42
2022/10/01 09:34:36;;;;;;;1.23;0.85;;;10.80;99.90;;;10.17;100.00;96739.63;5096368;28;20095;-40
2022/10/01 09:37:31;;;;;;;2.80;1.10;;;10.80;99.90;;;10.08;100.00;96743.53;5097688;28;20477;-40
2022/10/01 09:40:28;;;;;;;4.07;0.95;;;10.70;99.90;;;10.07;100.00;96753.25;5098030;28;20023;-41
2022/10/01 09:42:54;;;;;;;2.15;0.90;;;10.60;99.90;;;10.09;100.00;96759.28;5096219;28;20110;-40
2022/10/01 09:45:21;;;;;;;1.58;1.00;;;10.70;99.90;;;10.05;100.00;96741.91;5095536;27;20069;-40
2022/10/01 09:47:51;;;;;;;0.75;0.75;;;10.60;99.90;;;10.09;100.00;96758.44;5098977;27;20019;-40
2022/10/01 09:50:30;;;;;;;0.75;0.70;;;10.60;99.90;;;10.11;100.00;96748.69;5096227;28;20059;-41
2022/10/01 09:52:59;;;;;;;2.00;1.40;;;10.70;99.90;;;10.19;100.00;96749.16;5077077;28;20397;-40
2022/10/01 09:55:40;;;;;;;1.98;1.10;;;10.70;99.90;;;10.22;100.00;96758.72;5093983;28;20027;-41
2022/10/01 09:58:09;;;;;;;2.03;0.98;;;10.80;99.90;;;10.26;100.00;96770.84;5095942;28;20116;-41
2022/10/01 10:00:37;;;;;;;1.45;1.00;;;10.80;99.90;;;10.29;100.00;96758.38;5096126;28;20031;-40
2022/10/01 10:03:02;;;;;;;1.55;1.00;;;10.90;99.90;;;10.32;100.00;96768.81;5097786;28;20484;-41
2022/10/01 10:05:41;;;;;;;1.85;0.80;;;10.90;99.90;;;10.36;100.00;96761.63;5093649;27;20035;-40
2022/10/01 10:08:15;;;;;;;2.33;1.02;;;10.90;99.90;;;10.37;100.00;96760.69;5095985;27;20038;-40
2022/10/01 10:11:00;;;;;;;3.35;1.10;;;10.90;99.90;;;10.42;100.00;96763.97;5094728;28;20035;-40
2022/10/01 10:13:33;;;;;;;1.65;1.20;;;11.00;99.90;;;10.41;100.00;96764.91;5096292;28;20035;-40
2022/10/01 10:16:09;;;;;;;3.20;1.20;;;11.00;99.90;;;10.46;100.00;96768.19;5098077;28;20099;-43
2022/10/01 10:18:38;;;;;;;1.48;1.00;;;11.00;99.90;;;10.49;100.00;96773.28;5094507;27;20504;-41
2022/10/01 10:21:18;;;;;;;1.20;0.82;;;11.10;99.90;;;10.51;100.00;96765.31;5096207;28;20020;-41
2022/10/01 10:24:10;;;;;;;2.17;0.80;;;11.10;99.90;;;10.54;100.00;96772.25;5093263;27;20031;-41
2022/10/01 10:26:38;;;;;;;1.02;0.88;;;11.10;99.90;;;10.53;100.00;96771.38;5094875;28;20032;-40
2022/10/01 10:29:08;;;;;;;1.00;0.70;;;11.10;99.90;;;10.60;100.00;96778.06;5096236;28;20132;-43
2022/10/01 10:31:43;;;;;;;0.77;0.77;;;11.20;99.90;;;10.63;100.00;96791.13;5096020;28;20480;-41
2022/10/01 10:34:30;;;;;;;1.63;0.80;;;11.20;99.90;;;10.61;100.00;96777.16;5098244;28;20040;-41
2022/10/01 10:37:00;;;;;;;0.47;0.47;;;11.20;99.90;;;10.65;100.00;96767.31;5096446;28;20036;-45
2022/10/01 10:39:30;;;;;;;0.70;0.60;;;11.20;99.90;;;10.68;100.00;96767.19;5096182;27;20263;-41
2022/10/01 10:41:59;;;;;;;0.52;0.52;;;11.30;99.90;;;10.77;100.00;96758.81;5099356;27;20106;-42
2022/10/01 10:44:33;;;;;;;0.77;0.60;;;11.30;99.90;;;10.83;100.00;96766.44;5098553;28;20030;-42